sensor_id;sensor_type;location;lat;lon;timestamp;P1;durP1;ratioP1;P2;durP2;ratioP2
59659;SDS011;45534;52.690;6.268;2024-03-02T00:00:52;4.80;;;3.45;;
59659;SDS011;45534;52.690;6.268;2024-03-02T00:03:18;3.72;;;3.20;;
59659;SDS011;45534;52.690;6.268;2024-03-02T00:05:48;5.50;;;3.15;;
59659;SDS011;45534;52.690;6.268;2024-03-02T00:08:16;5.60;;;3.38;;
59659;SDS011;45534;52.690;6.268;2024-03-02T00:10:47;7.60;;;4.13;;
59659;SDS011;45534;52.690;6.268;2024-03-02T00:13:13;7.90;;;4.30;;
59659;SDS011;45534;52.690;6.268;2024-03-02T00:15:48;4.97;;;3.83;;
59659;SDS011;45534;52.690;6.268;2024-03-02T00:18:24;4.05;;;3.30;;
59659;SDS011;45534;52.690;6.268;2024-03-02T00:20:52;5.32;;;3.50;;
59659;SDS011;45534;52.690;6.268;2024-03-02T00:23:21;5.38;;;3.25;;
59659;SDS011;45534;52.690;6.268;2024-03-02T00:25:49;3.65;;;2.60;;
59659;SDS011;45534;52.690;6.268;2024-03-02T00:33:27;3.95;;;3.05;;
59659;SDS011;45534;52.690;6.268;2024-03-02T00:36:06;4.00;;;3.38;;
59659;SDS011;45534;52.690;6.268;2024-03-02T00:38:33;4.43;;;2.83;;
59659;SDS011;45534;52.690;6.268;2024-03-02T00:41:00;5.05;;;3.05;;
59659;SDS011;45534;52.690;6.268;2024-03-02T00:46:12;13.25;;;3.95;;
59659;SDS011;45534;52.690;6.268;2024-03-02T00:48:44;4.05;;;3.05;;
59659;SDS011;45534;52.690;6.268;2024-03-02T00:51:13;4.25;;;3.45;;
59659;SDS011;45534;52.690;6.268;2024-03-02T00:53:39;5.40;;;3.47;;
59659;SDS011;45534;52.690;6.268;2024-03-02T00:56:05;16.67;;;4.10;;
59659;SDS011;45534;52.690;6.268;2024-03-02T00:58:35;5.10;;;3.15;;
59659;SDS011;45534;52.690;6.268;2024-03-02T01:01:01;4.82;;;3.72;;
59659;SDS011;45534;52.690;6.268;2024-03-02T01:03:27;7.22;;;3.55;;
59659;SDS011;45534;52.690;6.268;2024-03-02T01:05:53;4.35;;;3.15;;
59659;SDS011;45534;52.690;6.268;2024-03-02T01:08:18;2.90;;;2.60;;
59659;SDS011;45534;52.690;6.268;2024-03-02T01:10:44;3.13;;;2.60;;
59659;SDS011;45534;52.690;6.268;2024-03-02T01:13:10;4.57;;;3.78;;
59659;SDS011;45534;52.690;6.268;2024-03-02T01:15:35;4.22;;;2.92;;
59659;SDS011;45534;52.690;6.268;2024-03-02T01:18:01;4.07;;;2.90;;
59659;SDS011;45534;52.690;6.268;2024-03-02T01:20:28;4.13;;;2.85;;
59659;SDS011;45534;52.690;6.268;2024-03-02T01:22:53;19.83;;;4.05;;
59659;SDS011;45534;52.690;6.268;2024-03-02T01:25:20;3.17;;;2.50;;
59659;SDS011;45534;52.690;6.268;2024-03-02T01:27:46;5.00;;;2.67;;
59659;SDS011;45534;52.690;6.268;2024-03-02T01:30:11;6.32;;;3.95;;
59659;SDS011;45534;52.690;6.268;2024-03-02T01:32:37;4.43;;;3.38;;
59659;SDS011;45534;52.690;6.268;2024-03-02T01:35:04;3.65;;;2.60;;
59659;SDS011;45534;52.690;6.268;2024-03-02T01:37:30;5.75;;;4.25;;
59659;SDS011;45534;52.690;6.268;2024-03-02T01:39:56;5.20;;;2.85;;
59659;SDS011;45534;52.690;6.268;2024-03-02T01:42:22;3.88;;;3.22;;
59659;SDS011;45534;52.690;6.268;2024-03-02T01:44:47;5.40;;;2.47;;
59659;SDS011;45534;52.690;6.268;2024-03-02T01:47:13;3.83;;;2.60;;
59659;SDS011;45534;52.690;6.268;2024-03-02T01:49:39;4.63;;;2.95;;
59659;SDS011;45534;52.690;6.268;2024-03-02T01:52:06;3.38;;;3.08;;
59659;SDS011;45534;52.690;6.268;2024-03-02T01:54:32;3.53;;;3.10;;
59659;SDS011;45534;52.690;6.268;2024-03-02T01:56:58;3.03;;;2.50;;
59659;SDS011;45534;52.690;6.268;2024-03-02T01:59:24;3.83;;;2.88;;
59659;SDS011;45534;52.690;6.268;2024-03-02T02:01:50;3.42;;;2.60;;
59659;SDS011;45534;52.690;6.268;2024-03-02T02:04:16;4.38;;;2.55;;
59659;SDS011;45534;52.690;6.268;2024-03-02T02:06:43;3.08;;;2.78;;
59659;SDS011;45534;52.690;6.268;2024-03-02T02:09:09;6.28;;;2.78;;
59659;SDS011;45534;52.690;6.268;2024-03-02T02:11:35;2.60;;;2.40;;
59659;SDS011;45534;52.690;6.268;2024-03-02T02:14:00;3.63;;;3.08;;
59659;SDS011;45534;52.690;6.268;2024-03-02T02:16:29;3.83;;;3.47;;
59659;SDS011;45534;52.690;6.268;2024-03-02T02:18:54;4.20;;;3.05;;
59659;SDS011;45534;52.690;6.268;2024-03-02T02:21:23;2.85;;;2.65;;
59659;SDS011;45534;52.690;6.268;2024-03-02T02:23:49;2.97;;;2.38;;
59659;SDS011;45534;52.690;6.268;2024-03-02T02:26:15;3.72;;;3.30;;
59659;SDS011;45534;52.690;6.268;2024-03-02T02:28:41;4.05;;;2.92;;
59659;SDS011;45534;52.690;6.268;2024-03-02T02:31:15;5.72;;;2.83;;
59659;SDS011;45534;52.690;6.268;2024-03-02T02:33:41;6.15;;;2.97;;
59659;SDS011;45534;52.690;6.268;2024-03-02T02:36:07;15.45;;;4.45;;
59659;SDS011;45534;52.690;6.268;2024-03-02T02:38:36;3.90;;;2.15;;
59659;SDS011;45534;52.690;6.268;2024-03-02T02:41:05;4.00;;;2.33;;
59659;SDS011;45534;52.690;6.268;2024-03-02T02:43:31;2.70;;;2.47;;
59659;SDS011;45534;52.690;6.268;2024-03-02T02:45:57;1.65;;;1.55;;
59659;SDS011;45534;52.690;6.268;2024-03-02T02:48:22;3.53;;;2.45;;
59659;SDS011;45534;52.690;6.268;2024-03-02T02:50:48;3.33;;;2.22;;
59659;SDS011;45534;52.690;6.268;2024-03-02T02:53:14;3.45;;;2.75;;
59659;SDS011;45534;52.690;6.268;2024-03-02T02:55:39;1.98;;;1.88;;
59659;SDS011;45534;52.690;6.268;2024-03-02T02:58:06;1.98;;;1.88;;
59659;SDS011;45534;52.690;6.268;2024-03-02T03:00:32;3.85;;;2.95;;
59659;SDS011;45534;52.690;6.268;2024-03-02T03:02:58;3.13;;;2.15;;
59659;SDS011;45534;52.690;6.268;2024-03-02T03:05:24;7.57;;;3.35;;
59659;SDS011;45534;52.690;6.268;2024-03-02T03:07:49;2.88;;;2.50;;
59659;SDS011;45534;52.690;6.268;2024-03-02T03:10:16;3.60;;;3.00;;
59659;SDS011;45534;52.690;6.268;2024-03-02T03:12:42;2.50;;;2.28;;
59659;SDS011;45534;52.690;6.268;2024-03-02T03:15:08;5.60;;;4.00;;
59659;SDS011;45534;52.690;6.268;2024-03-02T03:17:35;2.92;;;2.50;;
59659;SDS011;45534;52.690;6.268;2024-03-02T03:20:02;2.92;;;2.55;;
59659;SDS011;45534;52.690;6.268;2024-03-02T03:22:29;4.97;;;2.42;;
59659;SDS011;45534;52.690;6.268;2024-03-02T03:24:56;4.75;;;2.80;;
59659;SDS011;45534;52.690;6.268;2024-03-02T03:27:22;2.22;;;2.10;;
59659;SDS011;45534;52.690;6.268;2024-03-02T03:29:47;3.22;;;2.50;;
59659;SDS011;45534;52.690;6.268;2024-03-02T03:32:13;2.75;;;2.55;;
59659;SDS011;45534;52.690;6.268;2024-03-02T03:34:39;4.18;;;2.75;;
59659;SDS011;45534;52.690;6.268;2024-03-02T03:37:05;3.30;;;2.65;;
59659;SDS011;45534;52.690;6.268;2024-03-02T03:39:31;4.18;;;1.83;;
59659;SDS011;45534;52.690;6.268;2024-03-02T03:42:01;3.15;;;2.45;;
59659;SDS011;45534;52.690;6.268;2024-03-02T03:44:27;2.83;;;2.05;;
59659;SDS011;45534;52.690;6.268;2024-03-02T03:46:53;5.00;;;2.42;;
59659;SDS011;45534;52.690;6.268;2024-03-02T03:49:18;1.75;;;1.65;;
59659;SDS011;45534;52.690;6.268;2024-03-02T03:51:45;2.33;;;2.22;;
59659;SDS011;45534;52.690;6.268;2024-03-02T03:54:11;2.33;;;2.08;;
59659;SDS011;45534;52.690;6.268;2024-03-02T03:56:37;2.05;;;1.90;;
59659;SDS011;45534;52.690;6.268;2024-03-02T03:59:03;2.65;;;2.45;;
59659;SDS011;45534;52.690;6.268;2024-03-02T04:01:29;3.35;;;3.05;;
59659;SDS011;45534;52.690;6.268;2024-03-02T04:03:56;1.92;;;1.80;;
59659;SDS011;45534;52.690;6.268;2024-03-02T04:06:22;1.98;;;1.88;;
59659;SDS011;45534;52.690;6.268;2024-03-02T04:08:48;2.03;;;1.83;;
59659;SDS011;45534;52.690;6.268;2024-03-02T04:11:14;1.75;;;1.65;;
59659;SDS011;45534;52.690;6.268;2024-03-02T04:13:40;1.77;;;1.67;;
59659;SDS011;45534;52.690;6.268;2024-03-02T04:16:05;2.22;;;1.65;;
59659;SDS011;45534;52.690;6.268;2024-03-02T04:18:31;1.98;;;1.88;;
59659;SDS011;45534;52.690;6.268;2024-03-02T04:20:57;2.10;;;2.00;;
59659;SDS011;45534;52.690;6.268;2024-03-02T04:23:25;2.33;;;2.17;;
59659;SDS011;45534;52.690;6.268;2024-03-02T04:25:51;2.20;;;1.80;;
59659;SDS011;45534;52.690;6.268;2024-03-02T04:28:16;2.65;;;1.63;;
59659;SDS011;45534;52.690;6.268;2024-03-02T04:30:42;1.75;;;1.65;;
59659;SDS011;45534;52.690;6.268;2024-03-02T04:33:08;2.60;;;2.40;;
59659;SDS011;45534;52.690;6.268;2024-03-02T04:35:38;1.30;;;1.30;;
59659;SDS011;45534;52.690;6.268;2024-03-02T04:38:04;1.70;;;1.63;;
59659;SDS011;45534;52.690;6.268;2024-03-02T04:40:29;2.13;;;1.90;;
59659;SDS011;45534;52.690;6.268;2024-03-02T04:42:55;4.55;;;1.70;;
59659;SDS011;45534;52.690;6.268;2024-03-02T04:45:21;1.67;;;1.58;;
59659;SDS011;45534;52.690;6.268;2024-03-02T04:47:47;3.40;;;3.10;;
59659;SDS011;45534;52.690;6.268;2024-03-02T04:50:12;1.50;;;1.40;;
59659;SDS011;45534;52.690;6.268;2024-03-02T04:52:38;1.60;;;1.60;;
59659;SDS011;45534;52.690;6.268;2024-03-02T04:55:04;1.77;;;1.67;;
59659;SDS011;45534;52.690;6.268;2024-03-02T04:57:50;1.75;;;1.55;;
59659;SDS011;45534;52.690;6.268;2024-03-02T05:00:19;1.38;;;1.30;;
59659;SDS011;45534;52.690;6.268;2024-03-02T05:02:48;2.03;;;1.42;;
59659;SDS011;45534;52.690;6.268;2024-03-02T05:05:13;1.70;;;1.60;;
59659;SDS011;45534;52.690;6.268;2024-03-02T05:07:42;3.38;;;1.70;;
59659;SDS011;45534;52.690;6.268;2024-03-02T05:10:09;1.52;;;1.52;;
59659;SDS011;45534;52.690;6.268;2024-03-02T05:12:36;3.45;;;1.85;;
59659;SDS011;45534;52.690;6.268;2024-03-02T05:15:08;1.63;;;1.52;;
59659;SDS011;45534;52.690;6.268;2024-03-02T05:17:38;1.70;;;1.60;;
59659;SDS011;45534;52.690;6.268;2024-03-02T05:20:05;1.40;;;1.40;;
59659;SDS011;45534;52.690;6.268;2024-03-02T05:22:33;2.38;;;2.17;;
59659;SDS011;45534;52.690;6.268;2024-03-02T05:25:00;1.17;;;1.17;;
59659;SDS011;45534;52.690;6.268;2024-03-02T05:27:26;1.35;;;1.27;;
59659;SDS011;45534;52.690;6.268;2024-03-02T05:29:52;1.23;;;1.23;;
59659;SDS011;45534;52.690;6.268;2024-03-02T05:32:18;4.68;;;1.63;;
59659;SDS011;45534;52.690;6.268;2024-03-02T05:34:43;1.88;;;1.30;;
59659;SDS011;45534;52.690;6.268;2024-03-02T05:37:09;1.60;;;1.50;;
59659;SDS011;45534;52.690;6.268;2024-03-02T05:39:35;2.55;;;1.70;;
59659;SDS011;45534;52.690;6.268;2024-03-02T05:42:00;1.85;;;1.75;;
59659;SDS011;45534;52.690;6.268;2024-03-02T05:44:26;1.40;;;1.30;;
59659;SDS011;45534;52.690;6.268;2024-03-02T05:46:52;2.92;;;1.55;;
59659;SDS011;45534;52.690;6.268;2024-03-02T05:49:17;1.17;;;1.17;;
59659;SDS011;45534;52.690;6.268;2024-03-02T05:51:43;1.35;;;1.27;;
59659;SDS011;45534;52.690;6.268;2024-03-02T05:54:09;1.27;;;1.27;;
59659;SDS011;45534;52.690;6.268;2024-03-02T05:56:35;1.20;;;1.20;;
59659;SDS011;45534;52.690;6.268;2024-03-02T05:59:00;1.40;;;1.38;;
59659;SDS011;45534;52.690;6.268;2024-03-02T06:01:45;2.30;;;1.55;;
59659;SDS011;45534;52.690;6.268;2024-03-02T06:04:17;1.33;;;1.23;;
59659;SDS011;45534;52.690;6.268;2024-03-02T06:06:43;1.10;;;1.10;;
59659;SDS011;45534;52.690;6.268;2024-03-02T06:09:09;1.40;;;1.30;;
59659;SDS011;45534;52.690;6.268;2024-03-02T06:11:37;1.20;;;1.20;;
59659;SDS011;45534;52.690;6.268;2024-03-02T06:14:04;1.50;;;1.50;;
59659;SDS011;45534;52.690;6.268;2024-03-02T06:16:33;2.95;;;1.20;;
59659;SDS011;45534;52.690;6.268;2024-03-02T06:19:00;1.30;;;1.20;;
59659;SDS011;45534;52.690;6.268;2024-03-02T06:21:26;4.60;;;1.30;;
59659;SDS011;45534;52.690;6.268;2024-03-02T06:23:52;1.10;;;1.10;;
59659;SDS011;45534;52.690;6.268;2024-03-02T06:26:18;1.45;;;1.45;;
59659;SDS011;45534;52.690;6.268;2024-03-02T06:28:45;1.45;;;1.35;;
59659;SDS011;45534;52.690;6.268;2024-03-02T06:31:11;1.95;;;1.40;;
59659;SDS011;45534;52.690;6.268;2024-03-02T06:33:37;1.40;;;1.30;;
59659;SDS011;45534;52.690;6.268;2024-03-02T06:36:03;1.52;;;1.45;;
59659;SDS011;45534;52.690;6.268;2024-03-02T06:38:29;2.13;;;2.00;;
59659;SDS011;45534;52.690;6.268;2024-03-02T06:40:57;1.65;;;1.55;;
59659;SDS011;45534;52.690;6.268;2024-03-02T06:43:23;1.42;;;1.33;;
59659;SDS011;45534;52.690;6.268;2024-03-02T06:45:49;1.33;;;1.25;;
59659;SDS011;45534;52.690;6.268;2024-03-02T06:48:15;1.48;;;1.40;;
59659;SDS011;45534;52.690;6.268;2024-03-02T06:50:45;1.98;;;1.85;;
59659;SDS011;45534;52.690;6.268;2024-03-02T06:53:12;2.92;;;1.38;;
59659;SDS011;45534;52.690;6.268;2024-03-02T06:55:38;1.52;;;1.42;;
59659;SDS011;45534;52.690;6.268;2024-03-02T06:58:04;1.27;;;1.27;;
59659;SDS011;45534;52.690;6.268;2024-03-02T07:00:30;1.58;;;1.48;;
59659;SDS011;45534;52.690;6.268;2024-03-02T07:02:56;1.48;;;1.38;;
59659;SDS011;45534;52.690;6.268;2024-03-02T07:05:21;1.10;;;1.10;;
59659;SDS011;45534;52.690;6.268;2024-03-02T07:07:47;1.52;;;1.27;;
59659;SDS011;45534;52.690;6.268;2024-03-02T07:10:13;1.30;;;1.30;;
59659;SDS011;45534;52.690;6.268;2024-03-02T07:12:38;2.72;;;2.33;;
59659;SDS011;45534;52.690;6.268;2024-03-02T07:15:04;1.30;;;1.30;;
59659;SDS011;45534;52.690;6.268;2024-03-02T07:17:31;1.30;;;1.20;;
59659;SDS011;45534;52.690;6.268;2024-03-02T07:19:57;1.73;;;1.40;;
59659;SDS011;45534;52.690;6.268;2024-03-02T07:22:23;1.20;;;1.20;;
59659;SDS011;45534;52.690;6.268;2024-03-02T07:24:49;1.38;;;1.20;;
59659;SDS011;45534;52.690;6.268;2024-03-02T07:27:15;1.30;;;1.25;;
59659;SDS011;45534;52.690;6.268;2024-03-02T07:29:41;1.67;;;1.30;;
59659;SDS011;45534;52.690;6.268;2024-03-02T07:32:08;1.75;;;1.55;;
59659;SDS011;45534;52.690;6.268;2024-03-02T07:34:34;1.90;;;1.80;;
59659;SDS011;45534;52.690;6.268;2024-03-02T07:37:00;1.55;;;1.50;;
59659;SDS011;45534;52.690;6.268;2024-03-02T07:39:26;1.45;;;1.42;;
59659;SDS011;45534;52.690;6.268;2024-03-02T07:41:52;1.85;;;1.42;;
59659;SDS011;45534;52.690;6.268;2024-03-02T07:44:18;1.40;;;1.23;;
59659;SDS011;45534;52.690;6.268;2024-03-02T07:46:47;6.75;;;1.73;;
59659;SDS011;45534;52.690;6.268;2024-03-02T07:49:15;1.50;;;1.40;;
59659;SDS011;45534;52.690;6.268;2024-03-02T07:51:41;1.10;;;1.10;;
59659;SDS011;45534;52.690;6.268;2024-03-02T07:54:07;1.20;;;1.20;;
59659;SDS011;45534;52.690;6.268;2024-03-02T07:56:33;1.50;;;1.40;;
59659;SDS011;45534;52.690;6.268;2024-03-02T07:58:59;1.45;;;1.40;;
59659;SDS011;45534;52.690;6.268;2024-03-02T08:01:32;2.47;;;1.40;;
59659;SDS011;45534;52.690;6.268;2024-03-02T08:03:58;1.77;;;1.17;;
59659;SDS011;45534;52.690;6.268;2024-03-02T08:06:29;2.47;;;1.70;;
59659;SDS011;45534;52.690;6.268;2024-03-02T08:08:55;5.07;;;1.65;;
59659;SDS011;45534;52.690;6.268;2024-03-02T08:11:24;6.05;;;1.38;;
59659;SDS011;45534;52.690;6.268;2024-03-02T08:13:52;1.65;;;1.55;;
59659;SDS011;45534;52.690;6.268;2024-03-02T08:16:20;6.80;;;1.52;;
59659;SDS011;45534;52.690;6.268;2024-03-02T08:18:47;10.00;;;1.90;;
59659;SDS011;45534;52.690;6.268;2024-03-02T08:21:14;2.88;;;1.63;;
59659;SDS011;45534;52.690;6.268;2024-03-02T08:23:40;3.83;;;1.60;;
59659;SDS011;45534;52.690;6.268;2024-03-02T08:26:07;1.40;;;1.40;;
59659;SDS011;45534;52.690;6.268;2024-03-02T08:28:33;1.60;;;1.50;;
59659;SDS011;45534;52.690;6.268;2024-03-02T08:30:59;3.85;;;1.52;;
59659;SDS011;45534;52.690;6.268;2024-03-02T08:33:25;5.20;;;2.15;;
59659;SDS011;45534;52.690;6.268;2024-03-02T08:35:50;2.13;;;1.92;;
59659;SDS011;45534;52.690;6.268;2024-03-02T08:38:16;1.88;;;1.60;;
59659;SDS011;45534;52.690;6.268;2024-03-02T08:40:42;6.03;;;2.45;;
59659;SDS011;45534;52.690;6.268;2024-03-02T08:43:08;1.30;;;1.30;;
59659;SDS011;45534;52.690;6.268;2024-03-02T08:45:34;3.15;;;2.40;;
59659;SDS011;45534;52.690;6.268;2024-03-02T08:48:00;1.70;;;1.60;;
59659;SDS011;45534;52.690;6.268;2024-03-02T08:50:29;1.55;;;1.45;;
59659;SDS011;45534;52.690;6.268;2024-03-02T08:52:55;12.95;;;2.47;;
59659;SDS011;45534;52.690;6.268;2024-03-02T08:55:20;1.40;;;1.40;;
59659;SDS011;45534;52.690;6.268;2024-03-02T08:57:46;6.53;;;2.75;;
59659;SDS011;45534;52.690;6.268;2024-03-02T09:00:12;1.30;;;1.30;;
59659;SDS011;45534;52.690;6.268;2024-03-02T09:02:38;3.65;;;1.65;;
59659;SDS011;45534;52.690;6.268;2024-03-02T09:05:04;2.72;;;2.15;;
59659;SDS011;45534;52.690;6.268;2024-03-02T09:07:30;1.52;;;1.52;;
59659;SDS011;45534;52.690;6.268;2024-03-02T09:09:56;1.55;;;1.45;;
59659;SDS011;45534;52.690;6.268;2024-03-02T09:12:21;2.13;;;2.03;;
59659;SDS011;45534;52.690;6.268;2024-03-02T09:14:47;1.42;;;1.33;;
59659;SDS011;45534;52.690;6.268;2024-03-02T09:17:13;5.47;;;1.73;;
59659;SDS011;45534;52.690;6.268;2024-03-02T09:19:39;1.55;;;1.45;;
59659;SDS011;45534;52.690;6.268;2024-03-02T09:22:04;1.65;;;1.58;;
59659;SDS011;45534;52.690;6.268;2024-03-02T09:24:31;5.13;;;2.22;;
59659;SDS011;45534;52.690;6.268;2024-03-02T09:26:58;4.05;;;1.40;;
59659;SDS011;45534;52.690;6.268;2024-03-02T09:29:24;1.30;;;1.23;;
59659;SDS011;45534;52.690;6.268;2024-03-02T09:31:50;4.30;;;1.83;;
59659;SDS011;45534;52.690;6.268;2024-03-02T09:34:16;1.98;;;1.88;;
59659;SDS011;45534;52.690;6.268;2024-03-02T09:36:42;3.03;;;1.58;;
59659;SDS011;45534;52.690;6.268;2024-03-02T09:39:08;4.57;;;2.63;;
59659;SDS011;45534;52.690;6.268;2024-03-02T09:41:37;1.83;;;1.70;;
59659;SDS011;45534;52.690;6.268;2024-03-02T09:44:03;2.30;;;1.55;;
59659;SDS011;45534;52.690;6.268;2024-03-02T09:46:30;1.75;;;1.65;;
59659;SDS011;45534;52.690;6.268;2024-03-02T09:48:55;2.33;;;1.98;;
59659;SDS011;45534;52.690;6.268;2024-03-02T09:51:21;3.92;;;1.75;;
59659;SDS011;45534;52.690;6.268;2024-03-02T09:53:48;1.65;;;1.40;;
59659;SDS011;45534;52.690;6.268;2024-03-02T09:56:14;3.15;;;1.65;;
59659;SDS011;45534;52.690;6.268;2024-03-02T09:58:41;1.35;;;1.33;;
59659;SDS011;45534;52.690;6.268;2024-03-02T10:01:07;2.85;;;1.50;;
59659;SDS011;45534;52.690;6.268;2024-03-02T10:03:35;2.60;;;1.85;;
59659;SDS011;45534;52.690;6.268;2024-03-02T10:08:50;2.75;;;2.55;;
59659;SDS011;45534;52.690;6.268;2024-03-02T10:11:25;12.80;;;3.83;;
59659;SDS011;45534;52.690;6.268;2024-03-02T10:14:13;2.00;;;1.80;;
59659;SDS011;45534;52.690;6.268;2024-03-02T10:16:43;1.55;;;1.52;;
59659;SDS011;45534;52.690;6.268;2024-03-02T10:21:48;1.80;;;1.50;;
59659;SDS011;45534;52.690;6.268;2024-03-02T10:24:18;4.57;;;2.63;;
59659;SDS011;45534;52.690;6.268;2024-03-02T10:26:46;4.65;;;1.90;;
59659;SDS011;45534;52.690;6.268;2024-03-02T10:29:13;2.35;;;1.55;;
59659;SDS011;45534;52.690;6.268;2024-03-02T10:31:39;2.35;;;1.83;;
59659;SDS011;45534;52.690;6.268;2024-03-02T10:34:06;2.10;;;1.75;;
59659;SDS011;45534;52.690;6.268;2024-03-02T10:36:33;2.10;;;1.90;;
59659;SDS011;45534;52.690;6.268;2024-03-02T10:39:05;2.45;;;1.60;;
59659;SDS011;45534;52.690;6.268;2024-03-02T10:41:33;4.68;;;1.35;;
59659;SDS011;45534;52.690;6.268;2024-03-02T10:44:03;4.32;;;1.40;;
59659;SDS011;45534;52.690;6.268;2024-03-02T10:46:31;5.50;;;1.50;;
59659;SDS011;45534;52.690;6.268;2024-03-02T10:48:59;3.13;;;2.53;;
59659;SDS011;45534;52.690;6.268;2024-03-02T10:51:26;2.03;;;1.83;;
59659;SDS011;45534;52.690;6.268;2024-03-02T10:53:56;2.30;;;2.17;;
59659;SDS011;45534;52.690;6.268;2024-03-02T10:56:27;7.50;;;2.58;;
59659;SDS011;45534;52.690;6.268;2024-03-02T11:01:57;1.33;;;1.20;;
59659;SDS011;45534;52.690;6.268;2024-03-02T11:04:25;3.35;;;2.13;;
59659;SDS011;45534;52.690;6.268;2024-03-02T11:06:54;5.95;;;2.55;;
59659;SDS011;45534;52.690;6.268;2024-03-02T11:09:45;2.45;;;1.50;;
59659;SDS011;45534;52.690;6.268;2024-03-02T11:12:28;6.20;;;2.40;;
59659;SDS011;45534;52.690;6.268;2024-03-02T11:14:56;5.38;;;1.45;;
59659;SDS011;45534;52.690;6.268;2024-03-02T11:17:25;7.60;;;2.47;;
59659;SDS011;45534;52.690;6.268;2024-03-02T11:19:51;1.67;;;1.58;;
59659;SDS011;45534;52.690;6.268;2024-03-02T11:22:17;1.67;;;1.40;;
59659;SDS011;45534;52.690;6.268;2024-03-02T11:24:48;3.35;;;1.58;;
59659;SDS011;45534;52.690;6.268;2024-03-02T11:27:15;5.07;;;1.70;;
59659;SDS011;45534;52.690;6.268;2024-03-02T11:32:57;1.77;;;1.65;;
59659;SDS011;45534;52.690;6.268;2024-03-02T11:35:30;2.88;;;2.05;;
59659;SDS011;45534;52.690;6.268;2024-03-02T11:37:56;2.10;;;1.50;;
59659;SDS011;45534;52.690;6.268;2024-03-02T11:40:25;1.38;;;1.38;;
59659;SDS011;45534;52.690;6.268;2024-03-02T11:42:51;2.83;;;1.40;;
59659;SDS011;45534;52.690;6.268;2024-03-02T11:45:21;2.83;;;1.58;;
59659;SDS011;45534;52.690;6.268;2024-03-02T11:47:53;1.98;;;1.73;;
59659;SDS011;45534;52.690;6.268;2024-03-02T11:50:57;2.15;;;1.60;;
59659;SDS011;45534;52.690;6.268;2024-03-02T11:53:15;1.00;;;1.00;;
59659;SDS011;45534;52.690;6.268;2024-03-02T11:55:42;5.45;;;3.08;;
59659;SDS011;45534;52.690;6.268;2024-03-02T11:58:11;2.85;;;1.27;;
59659;SDS011;45534;52.690;6.268;2024-03-02T12:00:38;2.28;;;1.60;;
59659;SDS011;45534;52.690;6.268;2024-03-02T12:03:04;2.38;;;1.60;;
59659;SDS011;45534;52.690;6.268;2024-03-02T12:05:37;3.67;;;1.50;;
59659;SDS011;45534;52.690;6.268;2024-03-02T12:08:03;6.85;;;1.90;;
59659;SDS011;45534;52.690;6.268;2024-03-02T12:10:35;1.77;;;1.67;;
59659;SDS011;45534;52.690;6.268;2024-03-02T12:13:02;3.28;;;1.80;;
59659;SDS011;45534;52.690;6.268;2024-03-02T12:15:32;3.17;;;2.05;;
59659;SDS011;45534;52.690;6.268;2024-03-02T12:17:59;1.77;;;1.60;;
59659;SDS011;45534;52.690;6.268;2024-03-02T12:20:26;3.50;;;1.50;;
59659;SDS011;45534;52.690;6.268;2024-03-02T12:22:55;2.72;;;1.90;;
59659;SDS011;45534;52.690;6.268;2024-03-02T12:25:23;1.67;;;1.58;;
59659;SDS011;45534;52.690;6.268;2024-03-02T12:27:51;2.40;;;1.92;;
59659;SDS011;45534;52.690;6.268;2024-03-02T12:30:18;2.90;;;1.50;;
59659;SDS011;45534;52.690;6.268;2024-03-02T12:32:45;2.35;;;2.20;;
59659;SDS011;45534;52.690;6.268;2024-03-02T12:35:11;4.95;;;2.72;;
59659;SDS011;45534;52.690;6.268;2024-03-02T12:40:10;7.88;;;2.28;;
59659;SDS011;45534;52.690;6.268;2024-03-02T12:42:37;1.58;;;1.40;;
59659;SDS011;45534;52.690;6.268;2024-03-02T12:45:04;1.50;;;1.40;;
59659;SDS011;45534;52.690;6.268;2024-03-02T12:47:31;1.30;;;1.30;;
59659;SDS011;45534;52.690;6.268;2024-03-02T12:50:00;1.70;;;1.60;;
59659;SDS011;45534;52.690;6.268;2024-03-02T12:52:27;3.97;;;1.90;;
59659;SDS011;45534;52.690;6.268;2024-03-02T12:54:52;3.00;;;1.95;;
59659;SDS011;45534;52.690;6.268;2024-03-02T12:57:24;1.65;;;1.55;;
59659;SDS011;45534;52.690;6.268;2024-03-02T12:59:52;1.42;;;1.42;;
59659;SDS011;45534;52.690;6.268;2024-03-02T13:02:18;2.25;;;2.05;;
59659;SDS011;45534;52.690;6.268;2024-03-02T13:04:44;1.70;;;1.60;;
59659;SDS011;45534;52.690;6.268;2024-03-02T13:07:10;3.83;;;2.00;;
59659;SDS011;45534;52.690;6.268;2024-03-02T13:09:38;3.35;;;3.05;;
59659;SDS011;45534;52.690;6.268;2024-03-02T13:12:04;2.42;;;1.80;;
59659;SDS011;45534;52.690;6.268;2024-03-02T13:14:33;2.17;;;1.98;;
59659;SDS011;45534;52.690;6.268;2024-03-02T13:17:01;3.03;;;1.73;;
59659;SDS011;45534;52.690;6.268;2024-03-02T13:19:29;3.13;;;1.80;;
59659;SDS011;45534;52.690;6.268;2024-03-02T13:21:56;4.72;;;2.08;;
59659;SDS011;45534;52.690;6.268;2024-03-02T13:24:22;2.42;;;2.22;;
59659;SDS011;45534;52.690;6.268;2024-03-02T13:26:53;2.55;;;2.05;;
59659;SDS011;45534;52.690;6.268;2024-03-02T13:29:21;1.73;;;1.52;;
59659;SDS011;45534;52.690;6.268;2024-03-02T13:31:49;2.40;;;1.95;;
59659;SDS011;45534;52.690;6.268;2024-03-02T13:34:15;2.53;;;2.30;;
59659;SDS011;45534;52.690;6.268;2024-03-02T13:36:41;3.30;;;2.22;;
59659;SDS011;45534;52.690;6.268;2024-03-02T13:39:07;2.03;;;1.90;;
59659;SDS011;45534;52.690;6.268;2024-03-02T13:41:35;4.00;;;2.67;;
59659;SDS011;45534;52.690;6.268;2024-03-02T13:44:01;6.45;;;2.20;;
59659;SDS011;45534;52.690;6.268;2024-03-02T13:46:27;2.15;;;2.03;;
59659;SDS011;45534;52.690;6.268;2024-03-02T13:48:54;3.55;;;3.25;;
59659;SDS011;45534;52.690;6.268;2024-03-02T13:51:20;24.25;;;2.88;;
59659;SDS011;45534;52.690;6.268;2024-03-02T13:53:46;4.20;;;2.35;;
59659;SDS011;45534;52.690;6.268;2024-03-02T13:56:12;2.05;;;1.95;;
59659;SDS011;45534;52.690;6.268;2024-03-02T13:58:38;4.05;;;3.10;;
59659;SDS011;45534;52.690;6.268;2024-03-02T14:01:04;2.63;;;2.42;;
59659;SDS011;45534;52.690;6.268;2024-03-02T14:03:30;2.40;;;2.20;;
59659;SDS011;45534;52.690;6.268;2024-03-02T14:05:56;2.55;;;2.35;;
59659;SDS011;45534;52.690;6.268;2024-03-02T14:08:23;3.60;;;2.83;;
59659;SDS011;45534;52.690;6.268;2024-03-02T14:10:48;2.28;;;2.00;;
59659;SDS011;45534;52.690;6.268;2024-03-02T14:13:14;3.28;;;2.30;;
59659;SDS011;45534;52.690;6.268;2024-03-02T14:15:41;2.90;;;2.40;;
59659;SDS011;45534;52.690;6.268;2024-03-02T14:18:07;2.78;;;2.10;;
59659;SDS011;45534;52.690;6.268;2024-03-02T14:20:35;6.03;;;3.83;;
59659;SDS011;45534;52.690;6.268;2024-03-02T14:23:02;3.97;;;3.17;;
59659;SDS011;45534;52.690;6.268;2024-03-02T14:25:28;9.10;;;3.20;;
59659;SDS011;45534;52.690;6.268;2024-03-02T14:27:56;4.38;;;2.83;;
59659;SDS011;45534;52.690;6.268;2024-03-02T14:30:23;4.82;;;2.90;;
59659;SDS011;45534;52.690;6.268;2024-03-02T14:32:49;3.67;;;3.22;;
59659;SDS011;45534;52.690;6.268;2024-03-02T14:35:15;5.75;;;3.00;;
59659;SDS011;45534;52.690;6.268;2024-03-02T14:37:41;4.78;;;3.20;;
59659;SDS011;45534;52.690;6.268;2024-03-02T14:40:07;5.05;;;3.08;;
59659;SDS011;45534;52.690;6.268;2024-03-02T14:42:34;5.03;;;3.10;;
59659;SDS011;45534;52.690;6.268;2024-03-02T14:45:00;3.75;;;3.03;;
59659;SDS011;45534;52.690;6.268;2024-03-02T14:47:29;3.47;;;3.17;;
59659;SDS011;45534;52.690;6.268;2024-03-02T14:49:56;3.05;;;2.47;;
59659;SDS011;45534;52.690;6.268;2024-03-02T14:52:22;5.90;;;3.15;;
59659;SDS011;45534;52.690;6.268;2024-03-02T14:54:48;2.88;;;2.55;;
59659;SDS011;45534;52.690;6.268;2024-03-02T14:57:17;6.65;;;3.83;;
59659;SDS011;45534;52.690;6.268;2024-03-02T14:59:42;4.97;;;2.78;;
59659;SDS011;45534;52.690;6.268;2024-03-02T15:02:08;3.15;;;2.85;;
59659;SDS011;45534;52.690;6.268;2024-03-02T15:04:34;4.30;;;2.88;;
59659;SDS011;45534;52.690;6.268;2024-03-02T15:07:00;3.38;;;2.20;;
59659;SDS011;45534;52.690;6.268;2024-03-02T15:09:25;3.15;;;2.30;;